Time;durP1;ratioP1;P1;durP2;ratioP2;P2;SDS_P1;SDS_P2;PMS_P1;PMS_P2;Temp;Humidity;BMP_temperature;BMP_pressure;BME280_temperature;BME280_humidity;BME280_pressure;Samples;Min_cycle;Max_cycle;Signal;HPM_P1;HPM_P2
2021/05/29 00:00:55;;;;;;;5.10;4.60;;;10.00;99.90;;;;;;6142297;23;20423;-82
2021/05/29 00:06:46;;;;;;;5.47;5.07;;;10.00;99.90;;;;;;6230745;23;20499;-83
2021/05/29 00:09:56;;;;;;;7.30;5.27;;;9.90;99.90;;;;;;6231192;23;20370;-83
2021/05/29 00:12:36;;;;;;;6.13;5.63;;;9.90;99.90;;;;;;6082162;23;20426;-83
2021/05/29 00:19:37;;;;;;;;;;;;;;;;;;;;;
2021/05/29 00:22:09;;;;;;;5.80;5.20;;;9.80;99.90;;;;;;6054048;23;20382;-83
2021/05/29 00:24:53;;;;;;;8.60;7.83;;;9.80;99.90;;;;;;6066157;23;20417;-82
2021/05/29 00:28:09;;;;;;;6.47;5.97;;;9.70;99.90;;;;;;6068348;23;20798;-80
2021/05/29 00:31:09;;;;;;;5.80;5.30;;;9.60;99.90;;;;;;5958069;24;20432;-82
2021/05/29 00:33:58;;;;;;;6.27;5.67;;;;;;;;;;5924398;24;20429;-83
2021/05/29 00:37:03;;;;;;;5.43;4.83;;;;;;;;;;5941024;24;20385;-83
2021/05/29 00:40:08;;;;;;;5.90;5.30;;;;;;;;;;5944879;24;20474;-83
2021/05/29 00:43:10;;;;;;;4.53;4.23;;;;;;;;;;5998274;23;20444;-83
2021/05/29 00:46:03;;;;;;;6.03;5.47;;;;;;;;;;6225692;23;20402;-82
2021/05/29 00:48:41;;;;;;;5.00;4.60;;;;;;;;;;6227593;23;20368;-82
2021/05/29 00:51:10;;;;;;;5.23;4.73;;;;;;;;;;6228947;23;20405;-83
2021/05/29 00:54:25;;;;;;;5.63;5.13;;;;;;;;;;6204925;23;20417;-81
2021/05/29 00:57:17;;;;;;;5.90;4.23;;;;;;;;;;6196476;23;20462;-83
2021/05/29 01:00:01;;;;;;;5.20;4.73;;;;;;;;;;6203095;23;20405;-84
2021/05/29 01:02:27;;;;;;;8.50;4.60;;;;;;;;;;6193753;23;20383;-83
2021/05/29 01:04:56;;;;;;;5.60;5.10;;;;;;;;;;6192936;23;20358;-84
2021/05/29 01:08:17;;;;;;;6.97;5.10;;;;;;;;;;6149506;23;20391;-84
2021/05/29 01:10:59;;;;;;;6.60;5.70;;;;;;;;;;6132506;23;20426;-82
2021/05/29 01:14:01;;;;;;;5.87;5.37;;;;;;;;;;6139668;23;20384;-84
2021/05/29 01:19:31;;;;;;;6.30;5.70;;;;;;;;;;6164382;23;20447;-83
2021/05/29 01:22:38;;;;;;;6.93;6.33;;;;;;;;;;6160964;23;20454;-84
2021/05/29 01:25:29;;;;;;;6.90;4.73;;;;;;;;;;6163598;23;20799;-84
2021/05/29 01:28:54;;;;;;;10.00;6.23;;;;;;;;;;6161935;23;20448;-84
2021/05/29 01:31:38;;;;;;;;;;;;;;;;;;;;;
2021/05/29 01:34:13;;;;;;;6.30;5.00;;;;;;;;;;6161726;23;20454;-84
2021/05/29 01:36:53;;;;;;;6.90;5.63;;;;;;;;;;6163005;23;20394;-84
2021/05/29 01:39:28;;;;;;;6.27;5.67;;;;;;;;;;6162090;23;20378;-83
2021/05/29 01:42:04;;;;;;;6.43;5.23;;;;;;;;;;6161631;23;20380;-83
2021/05/29 01:44:38;;;;;;;5.50;5.07;;;;;;;;;;6163433;23;20826;-84
2021/05/29 01:47:12;;;;;;;6.90;6.37;;;;;;;;;;6161621;23;20390;-84
2021/05/29 01:50:34;;;;;;;7.57;6.75;;;;;;;;;;6159373;23;20388;-84
2021/05/29 01:53:12;;;;;;;9.03;7.00;;;;;;;;;;6161078;23;20176;-84
2021/05/29 01:56:00;;;;;;;8.47;6.43;;;;;;;;;;6161465;23;20363;-86
2021/05/29 01:58:47;;;;;;;6.77;6.17;;;;;;;;;;6221169;23;20433;-84
2021/05/29 02:01:13;;;;;;;8.30;6.97;;;;;;;;;;6221166;23;20385;-84
2021/05/29 02:03:45;;;;;;;8.17;7.30;;;;;;;;;;6221266;23;20440;-84
2021/05/29 02:06:40;;;;;;;6.97;5.80;;;;;;;;;;6215758;23;20397;-84
2021/05/29 02:09:08;;;;;;;6.87;6.23;;;9.60;99.90;;;;;;6191450;23;20346;-84
2021/05/29 02:11:46;;;;;;;10.03;7.07;;;8.30;99.90;;;;;;6195225;23;20446;-79
2021/05/29 02:14:39;;;;;;;9.77;9.03;;;8.20;99.90;;;;;;6209233;23;20220;-83
2021/05/29 02:17:40;;;;;;;7.47;6.67;;;8.20;99.90;;;;;;6201084;23;20366;-80
2021/05/29 02:20:58;;;;;;;7.90;7.20;;;8.10;99.90;;;;;;6202178;23;20349;-82
2021/05/29 02:23:51;;;;;;;8.97;8.07;;;8.10;99.90;;;;;;6128010;23;20376;-83
2021/05/29 02:26:33;;;;;;;9.30;8.40;;;8.10;99.90;;;;;;6181611;23;20370;-83
2021/05/29 02:29:24;;;;;;;9.77;8.30;;;8.10;99.90;;;;;;6166086;23;20344;-83
2021/05/29 02:32:31;;;;;;;8.40;7.03;;;8.20;99.90;;;;;;6165447;23;20446;-82
2021/05/29 02:35:27;;;;;;;;;;;;;;;;;;;;;
2021/05/29 02:38:17;;;;;;;9.07;8.17;;;8.20;99.90;;;;;;6164443;23;20807;-82
2021/05/29 02:41:15;;;;;;;14.63;8.67;;;8.20;99.90;;;;;;6163357;23;20384;-83
2021/05/29 02:44:19;;;;;;;10.07;7.50;;;8.20;99.90;;;;;;6164051;23;20375;-80
2021/05/29 02:47:33;;;;;;;9.27;8.37;;;8.10;99.90;;;;;;6166581;23;20402;-83
2021/05/29 02:53:43;;;;;;;13.00;8.03;;;8.10;99.90;;;;;;6151687;23;20448;-82
2021/05/29 02:56:38;;;;;;;;;;;;;;;;;;;;;
2021/05/29 02:59:21;;;;;;;9.67;8.87;;;8.10;99.90;;;;;;6162837;23;20211;-82
2021/05/29 03:02:26;;;;;;;8.53;7.83;;;8.20;99.90;;;;;;6163906;23;20395;-82
2021/05/29 03:05:06;;;;;;;10.03;8.50;;;8.10;99.90;;;;;;6162937;23;20359;-82
2021/05/29 03:07:39;;;;;;;13.37;9.17;;;8.10;99.90;;;;;;6162844;23;20443;-83
2021/05/29 03:10:45;;;;;;;11.30;9.47;;;8.10;99.90;;;;;;6165021;23;20366;-82
2021/05/29 03:16:16;;;;;;;13.30;12.13;;;8.20;99.90;;;;;;6165488;23;20678;-83
2021/05/29 03:18:47;;;;;;;11.10;10.07;;;8.20;99.90;;;;;;6162520;23;20159;-83
2021/05/29 03:21:27;;;;;;;13.00;11.60;;;8.20;99.90;;;;;;6162608;23;20870;-83
2021/05/29 03:23:58;;;;;;;12.77;11.47;;;8.20;99.90;;;;;;6162273;23;20419;-83
2021/05/29 03:26:35;;;;;;;17.50;13.97;;;8.20;99.90;;;;;;6164883;23;20464;-82
2021/05/29 03:29:09;;;;;;;14.17;12.80;;;8.20;99.90;;;;;;6163703;23;20394;-82
2021/05/29 03:32:40;;;;;;;;;;;;;;;;;;;;;
2021/05/29 03:36:06;;;;;;;14.73;13.13;;;8.20;99.90;;;;;;6135401;23;20403;-79
2021/05/29 03:42:50;;;;;;;21.23;14.53;;;8.20;99.90;;;;;;6056160;23;20389;-83
2021/05/29 03:45:33;;;;;;;16.43;14.10;;;8.20;99.90;;;;;;6077383;23;20434;-82
2021/05/29 03:49:03;;;;;;;14.70;13.30;;;8.20;99.90;;;;;;6076247;23;20397;-83
2021/05/29 03:51:41;;;;;;;15.03;13.63;;;8.30;99.90;;;;;;6071999;23;20436;-82
2021/05/29 03:54:49;;;;;;;13.87;12.57;;;8.40;99.90;;;;;;6049356;23;20842;-82
2021/05/29 03:58:10;;;;;;;13.40;12.18;;;8.50;99.90;;;;;;6058923;23;20370;-82
2021/05/29 04:00:48;;;;;;;16.00;12.67;;;8.30;99.90;;;;;;6073210;23;20584;-82
2021/05/29 04:03:13;;;;;;;17.90;13.30;;;8.40;99.90;;;;;;6049854;23;20382;-82
2021/05/29 04:05:45;;;;;;;15.50;13.90;;;8.40;99.90;;;;;;6076889;23;20390;-80
2021/05/29 04:09:14;;;;;;;16.27;12.23;;;8.50;99.90;;;;;;6076569;23;20161;-81
2021/05/29 04:11:37;;;;;;;18.30;14.30;;;8.50;99.90;;;;;;6053757;23;20425;-82
2021/05/29 04:14:10;;;;;;;17.53;14.43;;;8.30;99.90;;;;;;6080166;23;20376;-83
2021/05/29 04:16:56;;;;;;;22.03;17.97;;;8.40;99.90;;;;;;6083427;23;20465;-83
2021/05/29 04:19:22;;;;;;;22.77;20.50;;;8.50;99.90;;;;;;6082674;23;20380;-84
2021/05/29 04:22:09;;;;;;;31.20;22.70;;;8.60;99.90;;;;;;6131159;23;20439;-81
2021/05/29 04:24:54;;;;;;;26.17;23.47;;;8.60;99.90;;;;;;6109260;23;20384;-82
2021/05/29 04:28:18;;;;;;;;;;;;;;;;;;;;;
2021/05/29 04:32:00;;;;;;;31.93;27.33;;;8.80;99.90;;;;;;6160308;23;20502;-82
2021/05/29 04:34:47;;;;;;;25.50;22.03;;;8.90;99.90;;;;;;6165196;23;20343;-82
2021/05/29 04:37:40;;;;;;;25.13;19.03;;;8.80;99.90;;;;;;6137482;23;20375;-81
2021/05/29 04:40:44;;;;;;;17.70;15.07;;;8.70;99.90;;;;;;6165943;23;20382;-83
2021/05/29 04:43:30;;;;;;;21.03;17.67;;;8.60;99.90;;;;;;6192621;23;20446;-81
2021/05/29 04:46:29;;;;;;;17.70;14.70;;;8.50;99.90;;;;;;6193136;23;20367;-82
2021/05/29 04:49:56;;;;;;;16.10;14.53;;;8.50;99.90;;;;;;6168405;23;20379;-84
2021/05/29 04:52:59;;;;;;;14.80;13.20;;;8.70;99.90;;;;;;6161761;23;20434;-83
2021/05/29 04:55:35;;;;;;;15.17;12.60;;;9.00;99.90;;;;;;6174776;23;20461;-83
2021/05/29 04:58:01;;;;;;;13.63;12.30;;;9.00;99.90;;;;;;6184494;23;20375;-84
2021/05/29 05:00:30;;;;;;;14.53;13.13;;;8.90;99.90;;;;;;6209352;23;20383;-83
2021/05/29 05:02:55;;;;;;;15.63;13.77;;;9.10;99.90;;;;;;6183868;23;20202;-83
2021/05/29 05:05:21;;;;;;;21.93;16.87;;;9.10;99.90;;;;;;6169223;23;20933;-83
2021/05/29 05:07:49;;;;;;;19.93;15.97;;;9.10;99.90;;;;;;6166342;23;20155;-82
2021/05/29 05:10:20;;;;;;;22.23;15.80;;;9.20;99.90;;;;;;6172655;23;20140;-81
2021/05/29 05:16:14;;;;;;;23.30;19.07;;;8.80;99.90;;;;;;6178321;23;20434;-82
2021/05/29 05:18:40;;;;;;;19.40;15.47;;;8.60;99.90;;;;;;6183451;23;20382;-82
2021/05/29 05:21:06;;;;;;;20.80;18.57;;;8.60;99.90;;;;;;6184165;23;20380;-82
2021/05/29 05:23:32;;;;;;;22.10;19.50;;;8.70;99.90;;;;;;6183039;23;20393;-83
2021/05/29 05:25:58;;;;;;;26.17;23.60;;;8.50;99.90;;;;;;6183382;23;20403;-84
2021/05/29 05:28:26;;;;;;;31.67;25.43;;;8.50;99.90;;;;;;6183647;23;20171;-83
2021/05/29 05:30:57;;;;;;;29.97;25.23;;;8.50;99.90;;;;;;6183237;23;20438;-84
2021/05/29 05:33:25;;;;;;;33.40;26.00;;;8.60;99.90;;;;;;6183333;23;20443;-83
2021/05/29 05:35:51;;;;;;;28.53;25.50;;;8.50;99.90;;;;;;6158497;23;20396;-84
2021/05/29 05:38:17;;;;;;;27.23;22.87;;;8.60;99.90;;;;;;6183063;23;20389;-82
2021/05/29 05:40:43;;;;;;;32.87;25.07;;;8.70;99.90;;;;;;6183008;23;20375;-84
2021/05/29 05:43:10;;;;;;;26.07;21.80;;;8.90;99.90;;;;;;6175313;23;20558;-84
2021/05/29 05:45:35;;;;;;;23.60;21.10;;;9.10;99.90;;;;;;6141913;23;20411;-83
2021/05/29 05:48:01;;;;;;;28.93;24.23;;;8.90;99.90;;;;;;6143212;23;20511;-83
2021/05/29 05:50:27;;;;;;;31.60;24.47;;;8.70;99.90;;;;;;6166993;23;20155;-84
2021/05/29 05:52:53;;;;;;;29.10;25.10;;;8.70;99.90;;;;;;6167698;23;20384;-84
2021/05/29 05:55:19;;;;;;;30.17;23.00;;;8.80;99.90;;;;;;6165614;23;20897;-84
2021/05/29 05:57:45;;;;;;;25.70;23.10;;;9.00;99.90;;;;;;6141229;23;20148;-84
2021/05/29 06:00:14;;;;;;;22.60;19.87;;;9.10;99.90;;;;;;6141779;23;20136;-84
2021/05/29 06:02:42;;;;;;;25.27;19.37;;;9.20;99.90;;;;;;6141129;23;20458;-84
2021/05/29 06:05:08;;;;;;;17.70;15.03;;;9.30;99.90;;;;;;6167076;23;20402;-84
2021/05/29 06:07:34;;;;;;;19.87;16.83;;;9.40;99.90;;;;;;6141492;23;20403;-82
2021/05/29 06:10:00;;;;;;;19.23;17.27;;;9.50;99.90;;;;;;6143110;23;20419;-83
2021/05/29 06:12:25;;;;;;;19.43;17.47;;;9.50;99.90;;;;;;6166900;23;20172;-83
2021/05/29 06:20:49;;;;;;;14.70;13.13;;;10.10;99.90;;;;;;6058349;23;20383;-83
2021/05/29 06:23:16;;;;;;;16.23;13.53;;;10.20;99.90;;;;;;6026865;23;20383;-83
2021/05/29 06:25:43;;;;;;;16.10;13.87;;;10.20;99.90;;;;;;6107035;23;20407;-83
2021/05/29 06:28:10;;;;;;;17.00;12.97;;;10.20;99.90;;;;;;6140778;23;20446;-82
2021/05/29 06:30:36;;;;;;;17.67;12.10;;;9.90;99.90;;;;;;6141267;23;20420;-82
2021/05/29 06:33:03;;;;;;;15.37;13.77;;;10.10;99.90;;;;;;6116965;23;20763;-84
2021/05/29 06:35:30;;;;;;;15.20;13.73;;;10.10;99.90;;;;;;6140895;23;20387;-85
2021/05/29 06:37:55;;;;;;;14.40;11.70;;;10.20;99.90;;;;;;6166905;23;20487;-85
2021/05/29 06:40:21;;;;;;;13.43;11.97;;;10.20;99.90;;;;;;6167459;23;20897;-83
2021/05/29 06:42:47;;;;;;;14.33;12.60;;;10.50;99.90;;;;;;6166217;23;20140;-84
2021/05/29 06:45:13;;;;;;;14.30;12.70;;;10.70;99.90;;;;;;6140199;23;20380;-84
2021/05/29 06:47:39;;;;;;;15.93;12.03;;;10.70;99.90;;;;;;6166089;23;20158;-83
2021/05/29 06:50:07;;;;;;;14.23;12.07;;;10.90;99.90;;;;;;6166149;23;20869;-84
2021/05/29 06:52:42;;;;;;;15.10;12.50;;;10.90;99.90;;;;;;6140069;23;20157;-83
2021/05/29 06:58:38;;;;;;;12.57;11.27;;;10.80;99.90;;;;;;6140311;23;20714;-83
2021/05/29 07:00:41;;;;;;;12.90;11.60;;;10.90;99.90;;;;;;6168128;23;20486;-83
2021/05/29 07:03:07;;;;;;;16.83;13.40;;;10.60;99.90;;;;;;6143901;23;20387;-82
2021/05/29 07:05:33;;;;;;;12.80;11.27;;;10.50;99.90;;;;;;6150104;23;20414;-83
2021/05/29 07:08:01;;;;;;;19.53;13.23;;;10.60;99.90;;;;;;6179935;23;20359;-83
2021/05/29 07:10:26;;;;;;;14.33;12.37;;;10.80;99.90;;;;;;6157877;23;20139;-85
2021/05/29 07:12:52;;;;;;;11.80;10.13;;;11.20;99.90;;;;;;6157420;23;20398;-85
2021/05/29 07:15:18;;;;;;;13.33;11.93;;;11.40;99.90;;;;;;6153041;23;20239;-83
2021/05/29 07:17:46;;;;;;;16.40;11.50;;;11.30;99.90;;;;;;6167722;23;20216;-82
2021/05/29 07:20:12;;;;;;;13.00;10.40;;;11.40;99.90;;;;;;6115966;23;20163;-84
2021/05/29 07:22:38;;;;;;;13.57;11.57;;;11.60;99.90;;;;;;6140103;23;20388;-83
2021/05/29 07:25:05;;;;;;;9.07;8.27;;;11.90;99.90;;;;;;6114785;23;20384;-84
2021/05/29 07:27:31;;;;;;;10.23;8.90;;;12.20;99.90;;;;;;6116584;23;20394;-84
2021/05/29 07:29:57;;;;;;;9.47;8.17;;;12.60;99.90;;;;;;6168033;23;20372;-84
2021/05/29 07:32:24;;;;;;;10.27;9.30;;;12.50;99.90;;;;;;6140272;23;20252;-84
2021/05/29 07:34:51;;;;;;;11.40;10.30;;;12.80;99.90;;;;;;6141578;23;20388;-83
2021/05/29 07:37:16;;;;;;;11.57;10.00;;;13.00;99.90;;;;;;6141864;23;20400;-85
2021/05/29 07:39:42;;;;;;;11.10;10.00;;;13.30;99.90;;;;;;6140112;23;20823;-83
2021/05/29 07:42:08;;;;;;;12.30;9.77;;;13.40;99.90;;;;;;6146074;23;20159;-83
2021/05/29 07:44:33;;;;;;;8.87;7.60;;;13.20;99.90;;;;;;6154198;23;20140;-83
2021/05/29 07:46:59;;;;;;;10.37;9.30;;;13.30;99.90;;;;;;6154484;23;20184;-84
2021/05/29 07:53:36;;;;;;;;;;;;;;;;;;;;;
2021/05/29 07:56:22;;;;;;;10.97;8.53;;;13.70;99.90;;;;;;6090045;23;20450;-84
2021/05/29 07:58:58;;;;;;;12.60;8.37;;;13.30;99.90;;;;;;6079078;23;20378;-84
2021/05/29 08:01:24;;;;;;;12.63;8.30;;;13.40;99.90;;;;;;6056143;23;20393;-84
2021/05/29 08:03:50;;;;;;;9.40;7.80;;;13.60;99.90;;;;;;6081136;23;20454;-84
2021/05/29 08:06:21;;;;;;;7.63;6.67;;;14.00;99.90;;;;;;6110903;23;20170;-85
2021/05/29 08:08:47;;;;;;;8.30;7.50;;;13.80;99.90;;;;;;6165183;23;20149;-84
2021/05/29 08:11:25;;;;;;;7.87;7.10;;;14.00;99.90;;;;;;6139994;23;20415;-84
2021/05/29 08:13:54;;;;;;;10.40;6.93;;;13.90;99.90;;;;;;6164253;23;20415;-84
2021/05/29 08:16:22;;;;;;;8.90;7.20;;;13.90;99.90;;;;;;6166910;23;20380;-83
2021/05/29 08:18:48;;;;;;;8.30;6.90;;;13.80;99.90;;;;;;6168293;23;20380;-84
2021/05/29 08:21:14;;;;;;;6.60;5.90;;;14.10;99.90;;;;;;6165860;23;20380;-84
2021/05/29 08:23:40;;;;;;;8.00;7.20;;;14.00;99.90;;;;;;6167737;23;20400;-84
2021/05/29 08:26:09;;;;;;;8.13;7.30;;;13.50;99.90;;;;;;6165766;23;20413;-83
2021/05/29 08:28:36;;;;;;;9.27;7.40;;;13.60;99.90;;;;;;6165789;23;20371;-84
2021/05/29 08:31:02;;;;;;;8.93;7.03;;;14.10;99.90;;;;;;6167882;23;20407;-84
2021/05/29 08:33:28;;;;;;;8.43;7.60;;;14.40;99.90;;;;;;6163272;23;20482;-84
2021/05/29 08:35:54;;;;;;;7.77;6.97;;;14.60;99.90;;;;;;6166492;23;20400;-84
2021/05/29 08:38:20;;;;;;;10.97;7.50;;;14.20;99.90;;;;;;6167180;23;20144;-83
2021/05/29 08:40:45;;;;;;;7.33;6.63;;;14.50;99.90;;;;;;6167267;23;20152;-84
2021/05/29 08:43:11;;;;;;;6.87;6.27;;;14.80;99.90;;;;;;6150622;23;20393;-82
2021/05/29 08:45:38;;;;;;;6.40;5.90;;;14.50;99.90;;;;;;6174796;23;20553;-83
2021/05/29 08:48:04;;;;;;;6.30;5.70;;;14.40;99.90;;;;;;6150979;23;20433;-84
2021/05/29 08:50:38;;;;;;;8.17;6.90;;;14.40;99.90;;;;;;6178416;23;20381;-85
2021/05/29 08:53:06;;;;;;;7.40;5.93;;;14.50;99.90;;;;;;6180059;23;20426;-83
2021/05/29 08:55:35;;;;;;;8.10;7.23;;;14.70;99.90;;;;;;6177991;23;20510;-84
2021/05/29 08:58:04;;;;;;;7.43;6.83;;;14.70;99.90;;;;;;6141633;23;20388;-83
2021/05/29 09:00:30;;;;;;;8.57;6.53;;;14.70;99.90;;;;;;6167506;23;20407;-84
2021/05/29 09:03:03;;;;;;;13.00;7.13;;;14.40;99.90;;;;;;6166119;23;20446;-84
2021/05/29 09:05:50;;;;;;;9.10;6.60;;;14.30;99.90;;;;;;6165215;23;20400;-84
2021/05/29 09:08:18;;;;;;;6.90;6.20;;;14.40;99.90;;;;;;6167198;23;20403;-83
2021/05/29 09:10:56;;;;;;;9.33;7.70;;;14.60;99.90;;;;;;6167393;23;20418;-83
2021/05/29 09:13:24;;;;;;;7.87;7.17;;;14.60;99.90;;;;;;6166340;23;20463;-83
2021/05/29 09:16:00;;;;;;;7.20;6.23;;;14.30;99.90;;;;;;6167071;23;20405;-84
2021/05/29 09:18:38;;;;;;;8.60;6.53;;;14.20;99.90;;;;;;6169423;23;20372;-82
2021/05/29 09:21:23;;;;;;;8.70;7.00;;;14.40;99.90;;;;;;6169049;23;20401;-82
2021/05/29 09:23:52;;;;;;;10.23;7.17;;;14.60;99.90;;;;;;6171447;23;20432;-80
2021/05/29 09:26:23;;;;;;;10.07;6.90;;;14.70;99.90;;;;;;6145932;23;20396;-84
2021/05/29 09:29:21;;;;;;;9.00;7.17;;;14.50;99.90;;;;;;6173552;23;20632;-83
2021/05/29 09:31:59;;;;;;;7.57;6.57;;;14.50;99.90;;;;;;6171385;23;20419;-83
2021/05/29 09:34:28;;;;;;;8.30;7.50;;;15.20;99.90;;;;;;6169228;23;20451;-83
2021/05/29 09:37:19;;;;;;;8.50;7.23;;;15.70;99.90;;;;;;6139228;23;20534;-82
2021/05/29 09:39:47;;;;;;;12.20;7.50;;;15.90;99.90;;;;;;6165014;23;20438;-84
2021/05/29 09:42:14;;;;;;;8.30;7.53;;;15.90;99.90;;;;;;6166165;23;20378;-83
2021/05/29 09:44:40;;;;;;;7.50;6.80;;;15.40;99.90;;;;;;6165585;23;20402;-85
2021/05/29 09:47:14;;;;;;;9.30;7.40;;;15.30;99.90;;;;;;6173412;23;20473;-84
2021/05/29 09:49:47;;;;;;;11.10;8.50;;;15.30;99.90;;;;;;6173892;23;20385;-85
2021/05/29 09:52:35;;;;;;;9.10;8.10;;;15.30;99.90;;;;;;6175514;23;20425;-83
2021/05/29 09:55:06;;;;;;;9.90;6.50;;;15.60;99.90;;;;;;6166886;23;20378;-84
2021/05/29 09:57:52;;;;;;;8.53;6.37;;;15.50;99.90;;;;;;6167133;23;20488;-83
2021/05/29 10:00:18;;;;;;;8.00;7.30;;;15.70;99.90;;;;;;6167129;23;20793;-84
2021/05/29 10:02:59;;;;;;;12.83;10.87;;;15.30;99.90;;;;;;6170176;23;20370;-83
2021/05/29 10:05:52;;;;;;;9.47;8.30;;;15.40;99.90;;;;;;6170128;23;20394;-83
2021/05/29 10:08:18;;;;;;;9.20;8.20;;;15.70;99.90;;;;;;6168964;23;20439;-83
2021/05/29 10:10:44;;;;;;;8.23;5.60;;;15.40;99.90;;;;;;6165916;23;20413;-84
2021/05/29 10:13:13;;;;;;;9.37;7.30;;;15.20;99.90;;;;;;6141959;23;20396;-84
2021/05/29 10:15:39;;;;;;;7.73;6.97;;;15.70;99.90;;;;;;6165857;23;20396;-84
2021/05/29 10:18:09;;;;;;;8.77;7.17;;;15.80;99.90;;;;;;6166860;23;20366;-83
2021/05/29 10:20:39;;;;;;;10.43;7.73;;;15.60;99.90;;;;;;6141142;23;20382;-82
2021/05/29 10:23:09;;;;;;;8.23;7.53;;;16.00;99.90;;;;;;6167717;23;20374;-82
2021/05/29 10:25:35;;;;;;;7.73;7.00;;;16.20;99.90;;;;;;6170766;23;20395;-84
2021/05/29 10:28:02;;;;;;;7.17;5.80;;;15.60;99.90;;;;;;6178024;23;20400;-82
2021/05/29 10:30:31;;;;;;;9.47;8.53;;;15.60;99.90;;;;;;6181287;23;20366;-82
2021/05/29 10:33:54;;;;;;;8.43;7.47;;;15.90;99.90;;;;;;6181903;23;20393;-84
2021/05/29 10:36:46;;;;;;;8.73;7.93;;;16.30;99.90;;;;;;6148296;22;20413;-82
2021/05/29 10:39:40;;;;;;;7.30;6.70;;;15.80;99.90;;;;;;6172890;23;20845;-84
2021/05/29 10:42:06;;;;;;;8.47;6.87;;;15.30;99.90;;;;;;6167959;23;20359;-82
2021/05/29 10:44:36;;;;;;;7.70;6.70;;;15.10;99.90;;;;;;6167315;23;20696;-81
2021/05/29 10:47:13;;;;;;;7.80;7.00;;;15.40;99.90;;;;;;6165283;23;20169;-84
2021/05/29 10:49:51;;;;;;;9.57;8.67;;;15.30;99.90;;;;;;6140957;23;20421;-83
2021/05/29 10:52:36;;;;;;;9.27;8.47;;;15.30;99.90;;;;;;6163994;23;20896;-82
2021/05/29 10:55:14;;;;;;;8.50;7.70;;;15.00;99.90;;;;;;6164458;23;20444;-81
2021/05/29 10:58:12;;;;;;;7.53;6.83;;;14.70;99.90;;;;;;6164706;23;20580;-83
2021/05/29 11:00:41;;;;;;;8.30;7.60;;;14.70;99.90;;;;;;6201858;23;20354;-83
2021/05/29 11:03:45;;;;;;;9.33;7.47;;;15.00;99.90;;;;;;6200479;23;20382;-83
2021/05/29 11:06:42;;;;;;;11.17;8.43;;;15.50;99.90;;;;;;6163698;23;20913;-84
2021/05/29 11:09:14;;;;;;;14.40;9.17;;;16.10;99.90;;;;;;6167611;23;20427;-83
2021/05/29 11:12:06;;;;;;;10.17;8.50;;;15.70;99.90;;;;;;6166835;23;20511;-83
2021/05/29 11:14:52;;;;;;;9.93;7.70;;;15.40;99.90;;;;;;6166502;23;20410;-83
2021/05/29 11:17:27;;;;;;;7.50;6.80;;;15.40;99.90;;;;;;6164234;23;20390;-84
2021/05/29 11:20:18;;;;;;;9.40;8.50;;;15.70;99.90;;;;;;6165893;23;20346;-84
2021/05/29 11:22:50;;;;;;;11.03;7.37;;;16.20;99.90;;;;;;6142004;23;20379;-84
2021/05/29 11:25:28;;;;;;;6.93;6.33;;;16.30;99.90;;;;;;6170806;23;20419;-85
2021/05/29 11:27:57;;;;;;;7.70;7.10;;;16.90;99.90;;;;;;6165344;23;20391;-86
2021/05/29 11:30:42;;;;;;;8.80;8.10;;;16.80;99.90;;;;;;6168889;23;20421;-85
2021/05/29 11:33:39;;;;;;;;;;;;;;;;;;;;;
2021/05/29 12:00:12;;;;;;;;;;;;;;;;;;;;;
2021/05/29 12:37:20;;;;;;;;;;;;;;;;;;;;;
2021/05/29 12:40:35;;;;;;;;;;;;;;;;;;;;;
2021/05/29 12:44:13;;;;;;;8.87;7.27;;;;;;;;;;6134310;23;20383;-86
2021/05/29 12:47:19;;;;;;;8.47;7.67;;;;;;;;;;6181847;23;20423;-86
2021/05/29 12:50:00;;;;;;;7.20;6.50;;;;;;;;;;6163864;23;20446;-87
2021/05/29 12:52:32;;;;;;;11.23;7.40;;;;;;;;;;6202291;23;20435;-84
2021/05/29 13:11:45;;;;;;;6.90;6.30;;;;;;;;;;6231016;23;20495;-86
2021/05/29 13:14:26;;;;;;;6.07;5.47;;;;;;;;;;6230875;23;20374;-87
2021/05/29 13:20:06;;;;;;;7.20;6.40;;;;;;;;;;6229083;23;20440;-87
2021/05/29 13:27:00;;;;;;;6.50;5.90;;;;;;;;;;6039398;23;20432;-87
2021/05/29 13:29:44;;;;;;;8.93;7.87;;;;;;;;;;6033589;23;20461;-87
2021/05/29 13:32:20;;;;;;;8.50;7.60;;;;;;;;;;6078017;23;20566;-89
2021/05/29 13:34:49;;;;;;;7.40;6.20;;;;;;;;;;6078529;23;20414;-87
2021/05/29 13:37:42;;;;;;;8.60;6.87;;;;;;;;;;6078963;23;20432;-87
2021/05/29 13:40:13;;;;;;;5.70;5.27;;;;;;;;;;6112119;23;20390;-86
2021/05/29 13:43:20;;;;;;;8.70;6.87;;;;;;;;;;6171926;23;20766;-87
2021/05/29 13:46:12;;;;;;;6.90;6.27;;;;;;;;;;6073647;23;20441;-87
2021/05/29 13:48:41;;;;;;;10.27;7.53;;;;;;;;;;6226135;23;20369;-85
2021/05/29 13:51:13;;;;;;;6.73;6.23;;;;;;;;;;6200462;23;20421;-85
2021/05/29 13:53:49;;;;;;;7.27;6.57;;;;;;;;;;6227574;23;20361;-87
2021/05/29 13:56:37;;;;;;;8.97;6.83;;;;;;;;;;6216103;23;20417;-86
2021/05/29 13:59:46;;;;;;;7.80;7.10;;;;;;;;;;6197012;23;20439;-89
2021/05/29 14:02:15;;;;;;;6.03;5.20;;;;;;;;;;6178501;23;20462;-85
2021/05/29 14:04:41;;;;;;;6.47;5.93;;;;;;;;;;6197250;23;20395;-84
2021/05/29 14:07:07;;;;;;;13.80;7.23;;;;;;;;;;6195309;23;20417;-84
2021/05/29 14:09:34;;;;;;;7.47;6.77;;;;;;;;;;6196245;23;20472;-83
2021/05/29 14:12:03;;;;;;;8.13;7.40;;;;;;;;;;6195723;23;20428;-85
2021/05/29 14:14:29;;;;;;;8.00;7.30;;;;;;;;;;6196448;23;20370;-84
2021/05/29 14:16:55;;;;;;;8.20;7.40;;;;;;;;;;6197612;23;20415;-84
2021/05/29 14:19:22;;;;;;;6.80;6.20;;;;;;;;;;6196079;23;20449;-85
2021/05/29 14:21:50;;;;;;;7.93;7.20;;;;;;;;;;6196120;23;20389;-85
2021/05/29 14:24:20;;;;;;;8.33;7.57;;;;;;;;;;6196340;23;20841;-87
2021/05/29 14:26:55;;;;;;;6.33;5.83;;;;;;;;;;6197432;23;20404;-87
2021/05/29 14:29:24;;;;;;;10.57;6.13;;;;;;;;;;6196428;23;20373;-84
2021/05/29 14:31:50;;;;;;;7.10;6.50;;;;;;;;;;6196280;23;20524;-84
2021/05/29 14:34:46;;;;;;;7.37;6.70;;;;;;;;;;6198104;23;20371;-84
2021/05/29 14:37:12;;;;;;;8.43;6.70;;;;;;;;;;6197513;23;20400;-85
2021/05/29 14:39:43;;;;;;;6.43;5.70;;;;;;;;;;6198515;23;20390;-85
2021/05/29 14:42:09;;;;;;;11.43;6.47;;;;;;;;;;6199317;23;20369;-85
2021/05/29 14:44:35;;;;;;;7.30;6.60;;;;;;;;;;6197694;23;20396;-86
2021/05/29 14:47:02;;;;;;;8.43;7.30;;;;;;;;;;6198717;23;20504;-86
2021/05/29 14:49:29;;;;;;;6.17;5.57;;;;;;;;;;6198969;23;20389;-85
2021/05/29 14:51:55;;;;;;;7.03;6.33;;;;;;;;;;6173885;23;20422;-86
2021/05/29 14:54:26;;;;;;;7.17;5.87;;;;;;;;;;6202491;23;20413;-86
2021/05/29 14:56:52;;;;;;;6.67;5.60;;;;;;;;;;6177911;23;20398;-82
2021/05/29 14:59:18;;;;;;;6.47;5.90;;;;;;;;;;6207154;23;20378;-85
2021/05/29 15:01:46;;;;;;;6.17;5.67;;;;;;;;;;6206297;23;20432;-85
2021/05/29 15:04:18;;;;;;;7.63;6.37;;;;;;;;;;6177905;23;20389;-85
2021/05/29 15:06:45;;;;;;;6.50;5.93;;;;;;;;;;6200045;23;20557;-85
2021/05/29 15:09:11;;;;;;;7.00;5.93;;;;;;;;;;6173837;23;20385;-86
2021/05/29 15:11:41;;;;;;;6.47;5.97;;;;;;;;;;6181599;23;20371;-85
2021/05/29 15:14:13;;;;;;;7.43;6.73;;;;;;;;;;6183084;23;20370;-84
2021/05/29 15:16:43;;;;;;;6.07;5.47;;;;;;;;;;6184037;23;20442;-85
2021/05/29 15:19:13;;;;;;;5.90;5.30;;;;;;;;;;6154013;23;20393;-85
2021/05/29 15:21:51;;;;;;;7.50;6.70;;;;;;;;;;6175234;23;20413;-85
2021/05/29 15:24:25;;;;;;;7.10;6.53;;;;;;;;;;6172626;23;20348;-86
2021/05/29 15:27:06;;;;;;;7.20;6.30;;;;;;;;;;6171812;23;20387;-85
2021/05/29 15:30:21;;;;;;;5.93;5.53;;;;;;;;;;6136213;23;20382;-84
2021/05/29 15:33:14;;;;;;;6.90;6.30;;;;;;;;;;6152531;23;20397;-85
2021/05/29 15:35:41;;;;;;;6.03;5.53;;;;;;;;;;6173160;23;20365;-85
2021/05/29 15:38:15;;;;;;;6.73;6.17;;;;;;;;;;6173460;23;20383;-86
2021/05/29 15:41:04;;;;;;;6.10;5.60;;;;;;;;;;6174179;23;20418;-85
2021/05/29 15:43:51;;;;;;;5.40;4.93;;;;;;;;;;6172333;23;20370;-85
2021/05/29 16:05:30;;;;;;;6.63;6.07;;;;;;;;;;6192922;23;20450;-85
2021/05/29 16:08:45;;;;;;;6.50;5.93;;;;;;;;;;6143696;23;20398;-86
2021/05/29 16:10:53;;;;;;;8.37;6.60;;;;;;;;;;6127365;23;20382;-84
2021/05/29 16:14:35;;;;;;;7.57;6.87;;;;;;;;;;6141066;23;20394;-86
2021/05/29 16:16:52;;;;;;;6.73;6.13;;;;;;;;;;6042168;23;20391;-85
2021/05/29 16:19:44;;;;;;;7.63;6.50;;;;;;;;;;6024003;23;20873;-84
2021/05/29 16:22:52;;;;;;;7.23;5.53;;;;;;;;;;6001389;23;20756;-84
2021/05/29 16:25:29;;;;;;;6.47;5.87;;;;;;;;;;6014032;23;20440;-84
2021/05/29 16:28:08;;;;;;;5.93;5.33;;;;;;;;;;6115575;23;20410;-84
2021/05/29 16:31:02;;;;;;;6.13;5.63;;;;;;;;;;6046325;23;20378;-84
2021/05/29 16:37:20;;;;;;;5.83;5.30;;;;;;;;;;6137865;23;20866;-85
2021/05/29 16:40:01;;;;;;;6.10;5.63;;;;;;;;;;6163056;23;20637;-84
2021/05/29 16:42:40;;;;;;;7.30;5.73;;;;;;;;;;6108115;23;20981;-84
2021/05/29 16:45:33;;;;;;;6.30;5.70;;;;;;;;;;6117995;23;20384;-85
2021/05/29 16:48:06;;;;;;;7.27;6.63;;;;;;;;;;6152003;23;20438;-85
2021/05/29 16:50:58;;;;;;;7.33;5.40;;;;;;;;;;6140614;23;20383;-85
2021/05/29 16:57:18;;;;;;;6.77;6.13;;;;;;;;;;6135910;23;20454;-86
2021/05/29 16:59:46;;;;;;;7.10;6.40;;;;;;;;;;6222985;23;20381;-86
2021/05/29 17:02:12;;;;;;;7.07;5.87;;;;;;;;;;6225623;23;20435;-86